aviador You're here:

KATY Decoded Metar

WATERTOWN in SD, USA
Report Time2018-06-22 21:53:00
UTC Time2018-06-22 22:58:25
Flight Rules vfr VFR
Wind160° at 06 kt
W.Decomp.*RWY 17: 5.8 kt HW 1.7 kt LCW
RWY 12: 5.0 kt HW 3.4 kt RCW
W.Rank160° ranks 1
Current wind is below 160° avg. (9.7)
Visibility9999 m
Phenomena:N/A
Clouds:N/A
Expected CloudBase > 6,400 ft AGL from Temp-Dew spread
CeilingNone
Temp27°C (ISA +15)
Dew Point11°C (37% RH)
Heat Index26.7°C
AAT25.2°C
QNH1010 hPa
Density Alt3,802 ft
Elevation1,745 ft
Report Wrong Elevation
Raw Report
KATY 222153Z AUTO 16006KT 10SM CLR 27/11 A2983 RMK AO2 SLP090
T02670111=

Extra information for KATY:More info

Metar Taf Metar & Taf Last 4 Metars F.Rules Stats Wind Profile Meteogram Temp Stats Airport Information Weather charts Add Link Nearby VenuesMetar ALERT Operation Metar Decoded Social comments

AIRNAV info for KATY